Pagrindinis puslapis
METAR-TAF:

METAR-TAF

Oro uostai :

Izmitas, Turkija

platuma: 40-44N, ilguma: 030-05E, Aukštis: 50 m

Dabartinis oras

Ataskaita buvo paskelbta 22 minutes, ne 17:50 UTC
Vėjas 3 kt iš Šiaurės/Šiaurės Rytų, svyruoja nuo Šiaurės/Šiaurės Vakarų ir Rytų/Šiaurės Rytų
Temperatūra 20°C
Drėgmė 83%
Slėgis 1022 hPa
Matomumas 10 km arba daugiau
Su prošvaistėmis ne aukštis 2800 ft

METAR: LTBQ 151750Z 02003KT 330V070 9999 BKN028 20/17 Q1022 NOSIG

Laikas: 21:12 (18:12 UTC)

Prognozė

Ataskaita buvo paskelbta 1 valandą ir 32 minutes, ne 16:40 UTC
Prognozė galioja nuo 15 metu 18 UTC su 16 metu 03 UTC
Vėjas 2 kt nuo kintamojo kryptimis
Matomumas 10 km arba daugiau
Su prošvaistėmis ne aukštis 3000 ft
Laikinai
nuo 15 metu 19 UTC su 15 metu 23 UTC
lietus

TAF: LTBQ 151640Z 1518/1603 VRB02KT 9999 BKN030 TEMPO 1519/1523 -SHRA

Orai ataskaitas ir orų prognozės (METAR, TAF).

turimą stotys yra geltonos ir raudonos taškus žemėlapyje.

Perkelti pele per norėdami pamatyti stoties vardą.

Tada spustelėkite, norėdami matyti oro stebėjimo ir prognozės.

Norėdami pakeisti žemėlapį: spustelėkite ant žalios mygtukų su juodo kryžiaus žemyn,; žalią mygtuką su brūkšneliu, jei norite nutolinti; arba žalių rodyklių gretimoms žemėlapius.


METAR-TAF: